Time,TemperatureF,DewpointF,PressureIn,WindDirection,WindDirectionDegrees,WindSpeedMPH,WindSpeedGustMPH,Humidity,HourlyPrecipIn,Conditions,Clouds,dailyrainin,SolarRadiationWatts/m^2,SoftwareType,DateUTC
2013-08-04 00:02:00,84.0,69.0,-100.00,SSE,162,11.0,18.0,61,0.00,,,0.00,0.000000,,2013-08-04 05:02:00,
2013-08-04 00:12:00,84.0,69.0,-100.00,SSE,162,11.0,18.0,61,0.00,,,0.00,0.000000,,2013-08-04 05:12:00,
2013-08-04 00:22:00,84.0,69.0,-100.00,SSE,162,11.0,18.0,61,0.00,,,0.00,0.000000,,2013-08-04 05:22:00,
2013-08-04 00:32:00,84.0,69.0,-100.00,SSE,162,11.0,18.0,61,0.00,,,0.00,0.000000,,2013-08-04 05:32:00,
2013-08-04 01:02:00,82.0,69.0,-100.00,South,173,12.0,22.0,66,0.00,,,0.00,0.000000,,2013-08-04 06:02:00,
2013-08-04 01:12:00,82.0,69.0,-100.00,South,173,12.0,22.0,66,0.00,,,0.00,0.000000,,2013-08-04 06:12:00,
2013-08-04 01:22:00,82.0,69.0,-100.00,South,173,12.0,22.0,66,0.00,,,0.00,0.000000,,2013-08-04 06:22:00,
2013-08-04 01:32:00,82.0,69.0,-100.00,South,173,12.0,22.0,66,0.00,,,0.00,0.000000,,2013-08-04 06:32:00,
2013-08-04 02:02:00,80.0,70.0,-100.00,South,181,9.0,19.0,72,0.00,,,0.00,0.000000,,2013-08-04 07:02:00,
2013-08-04 02:12:00,80.0,70.0,-100.00,South,181,9.0,19.0,72,0.00,,,0.00,0.000000,,2013-08-04 07:12:00,
2013-08-04 02:22:00,80.0,70.0,-100.00,South,181,9.0,19.0,72,0.00,,,0.00,0.000000,,2013-08-04 07:22:00,
2013-08-04 02:32:00,80.0,70.0,-100.00,South,181,9.0,19.0,72,0.00,,,0.00,0.000000,,2013-08-04 07:32:00,
2013-08-04 03:02:00,79.0,71.0,-100.00,South,174,11.0,19.0,76,0.00,,,0.00,0.000000,,2013-08-04 08:02:00,
2013-08-04 03:12:00,79.0,71.0,-100.00,South,174,11.0,19.0,76,0.00,,,0.00,0.000000,,2013-08-04 08:12:00,
2013-08-04 03:22:00,79.0,71.0,-100.00,South,174,11.0,19.0,76,0.00,,,0.00,0.000000,,2013-08-04 08:22:00,
2013-08-04 03:32:00,79.0,71.0,-100.00,South,174,11.0,19.0,76,0.00,,,0.00,0.000000,,2013-08-04 08:32:00,
2013-08-04 04:02:00,77.0,70.0,-100.00,South,176,10.0,19.0,80,0.00,,,0.00,0.000000,,2013-08-04 09:02:00,
2013-08-04 04:12:00,77.0,70.0,-100.00,South,176,10.0,19.0,80,0.00,,,0.00,0.000000,,2013-08-04 09:12:00,
2013-08-04 04:22:00,77.0,70.0,-100.00,South,176,10.0,19.0,80,0.00,,,0.00,0.000000,,2013-08-04 09:22:00,
2013-08-04 04:32:00,77.0,70.0,-100.00,South,176,10.0,19.0,80,0.00,,,0.00,0.000000,,2013-08-04 09:32:00,
2013-08-04 05:02:00,76.0,71.0,-100.00,South,181,11.0,17.0,84,0.00,,,0.00,0.000000,,2013-08-04 10:02:00,
2013-08-04 05:12:00,76.0,71.0,-100.00,South,181,11.0,17.0,84,0.00,,,0.00,0.000000,,2013-08-04 10:12:00,
2013-08-04 05:22:00,76.0,71.0,-100.00,South,181,11.0,17.0,84,0.00,,,0.00,0.000000,,2013-08-04 10:22:00,
2013-08-04 05:32:00,76.0,71.0,-100.00,South,181,11.0,17.0,84,0.00,,,0.00,0.000000,,2013-08-04 10:32:00,
2013-08-04 06:02:00,75.0,71.0,-100.00,South,183,10.0,19.0,87,0.00,,,0.00,0.000000,,2013-08-04 11:02:00,
2013-08-04 06:12:00,75.0,71.0,-100.00,South,183,10.0,19.0,87,0.00,,,0.00,0.000000,,2013-08-04 11:12:00,
2013-08-04 06:22:00,75.0,71.0,-100.00,South,183,10.0,19.0,87,0.00,,,0.00,0.000000,,2013-08-04 11:22:00,
2013-08-04 06:32:00,75.0,71.0,-100.00,South,183,10.0,19.0,87,0.00,,,0.00,0.000000,,2013-08-04 11:32:00,
2013-08-04 07:02:00,74.0,71.0,-100.00,South,177,7.0,14.0,91,0.00,,,0.00,0.000000,,2013-08-04 12:02:00,
2013-08-04 07:12:00,74.0,71.0,-100.00,South,177,7.0,14.0,91,0.00,,,0.00,0.000000,,2013-08-04 12:12:00,
2013-08-04 07:22:00,74.0,71.0,-100.00,South,177,7.0,14.0,91,0.00,,,0.00,0.000000,,2013-08-04 12:22:00,
2013-08-04 07:32:00,74.0,71.0,-100.00,South,177,7.0,14.0,91,0.00,,,0.00,0.000000,,2013-08-04 12:32:00,
2013-08-04 08:02:00,75.0,72.0,-100.00,South,178,7.0,12.0,90,0.00,,,0.00,23.000000,,2013-08-04 13:02:00,
2013-08-04 08:12:00,75.0,72.0,-100.00,South,178,7.0,12.0,90,0.00,,,0.00,23.000000,,2013-08-04 13:12:00,
2013-08-04 08:22:00,75.0,72.0,-100.00,South,178,7.0,12.0,90,0.00,,,0.00,23.000000,,2013-08-04 13:22:00,
2013-08-04 08:32:00,75.0,72.0,-100.00,South,178,7.0,12.0,90,0.00,,,0.00,23.000000,,2013-08-04 13:32:00,
2013-08-04 09:02:00,79.0,73.0,-100.00,SSW,193,7.0,11.0,82,0.00,,,0.00,158.000000,,2013-08-04 14:02:00,
2013-08-04 09:12:00,79.0,73.0,-100.00,SSW,193,7.0,11.0,82,0.00,,,0.00,158.000000,,2013-08-04 14:12:00,
2013-08-04 09:22:00,79.0,73.0,-100.00,SSW,193,7.0,11.0,82,0.00,,,0.00,158.000000,,2013-08-04 14:22:00,
2013-08-04 09:32:00,79.0,73.0,-100.00,SSW,193,7.0,11.0,82,0.00,,,0.00,158.000000,,2013-08-04 14:32:00,
2013-08-04 10:02:00,82.0,72.0,-100.00,South,187,9.0,14.0,73,0.00,,,0.00,318.000000,,2013-08-04 15:02:00,
2013-08-04 10:12:00,82.0,72.0,-100.00,South,187,9.0,14.0,73,0.00,,,0.00,318.000000,,2013-08-04 15:12:00,
2013-08-04 10:22:00,82.0,72.0,-100.00,South,187,9.0,14.0,73,0.00,,,0.00,318.000000,,2013-08-04 15:22:00,
2013-08-04 10:32:00,82.0,72.0,-100.00,South,187,9.0,14.0,73,0.00,,,0.00,318.000000,,2013-08-04 15:32:00,
2013-08-04 11:02:00,83.0,71.0,-100.00,SSW,203,11.0,17.0,68,0.00,,,0.00,430.000000,,2013-08-04 16:02:00,
2013-08-04 11:12:00,83.0,71.0,-100.00,SSW,203,11.0,17.0,68,0.00,,,0.00,430.000000,,2013-08-04 16:12:00,
2013-08-04 11:22:00,83.0,71.0,-100.00,SSW,203,11.0,17.0,68,0.00,,,0.00,430.000000,,2013-08-04 16:22:00,
2013-08-04 11:33:00,83.0,71.0,-100.00,SSW,203,11.0,17.0,68,0.00,,,0.00,430.000000,,2013-08-04 16:33:00,
2013-08-04 12:02:00,87.0,70.0,-100.00,South,182,10.0,17.0,58,0.00,,,0.00,625.000000,,2013-08-04 17:02:00,
2013-08-04 12:12:00,87.0,70.0,-100.00,South,182,10.0,17.0,58,0.00,,,0.00,625.000000,,2013-08-04 17:12:00,
2013-08-04 12:22:00,87.0,70.0,-100.00,South,182,10.0,17.0,58,0.00,,,0.00,625.000000,,2013-08-04 17:22:00,
2013-08-04 12:32:00,87.0,70.0,-100.00,South,182,10.0,17.0,58,0.00,,,0.00,625.000000,,2013-08-04 17:32:00,
2013-08-04 13:02:00,89.0,70.0,-100.00,South,181,7.0,18.0,54,0.00,,,0.00,794.000000,,2013-08-04 18:02:00,
2013-08-04 13:12:00,89.0,70.0,-100.00,South,181,7.0,18.0,54,0.00,,,0.00,794.000000,,2013-08-04 18:12:00,
2013-08-04 13:22:00,89.0,70.0,-100.00,South,181,7.0,18.0,54,0.00,,,0.00,794.000000,,2013-08-04 18:22:00,
2013-08-04 13:33:00,89.0,70.0,-100.00,South,181,7.0,18.0,54,0.00,,,0.00,794.000000,,2013-08-04 18:33:00,
2013-08-04 14:02:00,91.0,69.0,-100.00,South,169,12.0,20.0,48,0.00,,,0.00,791.000000,,2013-08-04 19:02:00,
2013-08-04 14:12:00,91.0,69.0,-100.00,South,169,12.0,20.0,48,0.00,,,0.00,791.000000,,2013-08-04 19:12:00,
2013-08-04 14:22:00,91.0,69.0,-100.00,South,169,12.0,20.0,48,0.00,,,0.00,791.000000,,2013-08-04 19:22:00,
2013-08-04 14:33:00,91.0,69.0,-100.00,South,169,12.0,20.0,48,0.00,,,0.00,791.000000,,2013-08-04 19:33:00,
2013-08-04 15:02:00,92.0,68.0,-100.00,SE,146,10.0,18.0,45,0.00,,,0.00,714.000000,,2013-08-04 20:02:00,
2013-08-04 15:12:00,92.0,68.0,-100.00,SE,146,10.0,18.0,45,0.00,,,0.00,714.000000,,2013-08-04 20:12:00,
2013-08-04 15:22:00,92.0,68.0,-100.00,SE,146,10.0,18.0,45,0.00,,,0.00,714.000000,,2013-08-04 20:22:00,
2013-08-04 15:33:00,92.0,68.0,-100.00,SE,146,10.0,18.0,45,0.00,,,0.00,714.000000,,2013-08-04 20:33:00,
2013-08-04 16:02:00,93.0,68.0,-100.00,SSE,156,9.0,18.0,44,0.00,,,0.00,586.000000,,2013-08-04 21:02:00,
2013-08-04 16:12:00,93.0,68.0,-100.00,SSE,156,9.0,18.0,44,0.00,,,0.00,586.000000,,2013-08-04 21:12:00,
2013-08-04 16:22:00,93.0,68.0,-100.00,SSE,156,9.0,18.0,44,0.00,,,0.00,586.000000,,2013-08-04 21:22:00,
2013-08-04 16:32:00,93.0,68.0,-100.00,SSE,156,9.0,18.0,44,0.00,,,0.00,586.000000,,2013-08-04 21:32:00,
2013-08-04 17:02:00,93.0,67.0,-100.00,SSE,148,7.0,16.0,43,0.00,,,0.00,518.000000,,2013-08-04 22:02:00,
2013-08-04 17:12:00,93.0,67.0,-100.00,SSE,148,7.0,16.0,43,0.00,,,0.00,518.000000,,2013-08-04 22:12:00,
2013-08-04 17:22:00,93.0,67.0,-100.00,SSE,148,7.0,16.0,43,0.00,,,0.00,518.000000,,2013-08-04 22:22:00,
2013-08-04 17:32:00,93.0,67.0,-100.00,SSE,148,7.0,16.0,43,0.00,,,0.00,518.000000,,2013-08-04 22:32:00,
2013-08-04 18:02:00,94.0,66.0,-100.00,SE,146,9.0,15.0,40,0.00,,,0.00,456.000000,,2013-08-04 23:02:00,
2013-08-04 18:12:00,94.0,66.0,-100.00,SE,146,9.0,15.0,40,0.00,,,0.00,456.000000,,2013-08-04 23:12:00,
2013-08-04 18:22:00,94.0,66.0,-100.00,SE,146,9.0,15.0,40,0.00,,,0.00,456.000000,,2013-08-04 23:22:00,
2013-08-04 18:32:00,94.0,66.0,-100.00,SE,146,9.0,15.0,40,0.00,,,0.00,456.000000,,2013-08-04 23:32:00,
2013-08-04 19:02:00,92.0,65.0,-100.00,SSE,156,10.0,17.0,41,0.00,,,0.00,320.000000,,2013-08-05 00:02:00,
2013-08-04 19:12:00,92.0,65.0,-100.00,SSE,156,10.0,17.0,41,0.00,,,0.00,320.000000,,2013-08-05 00:12:00,
2013-08-04 19:22:00,92.0,65.0,-100.00,SSE,156,10.0,17.0,41,0.00,,,0.00,320.000000,,2013-08-05 00:22:00,
2013-08-04 19:32:00,92.0,65.0,-100.00,SSE,156,10.0,17.0,41,0.00,,,0.00,320.000000,,2013-08-05 00:32:00,
2013-08-04 20:02:00,93.0,66.0,-100.00,SSE,151,7.0,15.0,41,0.00,,,0.00,179.000000,,2013-08-05 01:02:00,
2013-08-04 20:12:00,93.0,66.0,-100.00,SSE,151,7.0,15.0,41,0.00,,,0.00,179.000000,,2013-08-05 01:12:00,
2013-08-04 20:22:00,93.0,66.0,-100.00,SSE,151,7.0,15.0,41,0.00,,,0.00,179.000000,,2013-08-05 01:22:00,
2013-08-04 20:32:00,93.0,66.0,-100.00,SSE,151,7.0,15.0,41,0.00,,,0.00,179.000000,,2013-08-05 01:32:00,
2013-08-04 21:02:00,89.0,65.0,-100.00,SE,130,3.0,10.0,45,0.00,,,0.00,32.000000,,2013-08-05 02:02:00,
2013-08-04 21:12:00,89.0,65.0,-100.00,SE,130,3.0,10.0,45,0.00,,,0.00,32.000000,,2013-08-05 02:12:00,
2013-08-04 21:22:00,89.0,65.0,-100.00,SE,130,3.0,10.0,45,0.00,,,0.00,32.000000,,2013-08-05 02:22:00,
2013-08-04 21:33:00,89.0,65.0,-100.00,SE,130,3.0,10.0,45,0.00,,,0.00,32.000000,,2013-08-05 02:33:00,
2013-08-04 22:02:00,87.0,65.0,-100.00,SE,144,3.0,6.0,49,0.00,,,0.00,0.000000,,2013-08-05 03:02:00,
2013-08-04 22:12:00,87.0,65.0,-100.00,SE,144,3.0,6.0,49,0.00,,,0.00,0.000000,,2013-08-05 03:12:00,
2013-08-04 22:22:00,87.0,65.0,-100.00,SE,144,3.0,6.0,49,0.00,,,0.00,0.000000,,2013-08-05 03:22:00,
2013-08-04 22:32:00,87.0,65.0,-100.00,SE,144,3.0,6.0,49,0.00,,,0.00,0.000000,,2013-08-05 03:32:00,
2013-08-04 23:02:00,85.0,67.0,-100.00,SSE,159,7.0,14.0,55,0.00,,,0.00,0.000000,,2013-08-05 04:02:00,
2013-08-04 23:12:00,85.0,67.0,-100.00,SSE,159,7.0,14.0,55,0.00,,,0.00,0.000000,,2013-08-05 04:12:00,
2013-08-04 23:22:00,85.0,67.0,-100.00,SSE,159,7.0,14.0,55,0.00,,,0.00,0.000000,,2013-08-05 04:22:00,
2013-08-04 23:32:00,85.0,67.0,-100.00,SSE,159,7.0,14.0,55,0.00,,,0.00,0.000000,,2013-08-05 04:32:00,